sensor_id;sensor_type;location;lat;lon;timestamp;temperature;humidity
37518;DHT22;23366;52.498;13.446;2023-03-21T00:00:59;10.40;99.90
37518;DHT22;23366;52.498;13.446;2023-03-21T00:03:25;10.40;99.90
37518;DHT22;23366;52.498;13.446;2023-03-21T00:05:51;10.30;99.90
37518;DHT22;23366;52.498;13.446;2023-03-21T00:08:19;10.20;99.90
37518;DHT22;23366;52.498;13.446;2023-03-21T00:10:45;10.20;99.90
37518;DHT22;23366;52.498;13.446;2023-03-21T00:13:14;10.10;99.90
37518;DHT22;23366;52.498;13.446;2023-03-21T00:15:40;10.10;99.90
37518;DHT22;23366;52.498;13.446;2023-03-21T00:18:18;10.10;99.90
37518;DHT22;23366;52.498;13.446;2023-03-21T00:20:57;10.10;99.90
37518;DHT22;23366;52.498;13.446;2023-03-21T00:23:27;10.10;99.90
37518;DHT22;23366;52.498;13.446;2023-03-21T00:25:53;10.10;99.90
37518;DHT22;23366;52.498;13.446;2023-03-21T00:28:19;10.10;99.90
37518;DHT22;23366;52.498;13.446;2023-03-21T00:30:44;10.20;99.90
37518;DHT22;23366;52.498;13.446;2023-03-21T00:33:10;10.20;99.90
37518;DHT22;23366;52.498;13.446;2023-03-21T00:35:37;10.20;99.90
37518;DHT22;23366;52.498;13.446;2023-03-21T00:38:03;10.20;99.90
37518;DHT22;23366;52.498;13.446;2023-03-21T00:40:28;10.20;99.90
37518;DHT22;23366;52.498;13.446;2023-03-21T00:42:54;10.20;99.90
37518;DHT22;23366;52.498;13.446;2023-03-21T00:45:20;10.20;99.90
37518;DHT22;23366;52.498;13.446;2023-03-21T00:47:48;10.20;99.90
37518;DHT22;23366;52.498;13.446;2023-03-21T00:50:14;10.20;99.90
37518;DHT22;23366;52.498;13.446;2023-03-21T00:52:39;10.10;99.90
37518;DHT22;23366;52.498;13.446;2023-03-21T00:55:05;10.20;99.90
37518;DHT22;23366;52.498;13.446;2023-03-21T00:57:32;10.20;99.90
37518;DHT22;23366;52.498;13.446;2023-03-21T00:59:57;10.20;99.90
37518;DHT22;23366;52.498;13.446;2023-03-21T01:02:24;10.20;99.90
37518;DHT22;23366;52.498;13.446;2023-03-21T01:04:52;10.20;99.90
37518;DHT22;23366;52.498;13.446;2023-03-21T01:07:18;10.20;99.90
37518;DHT22;23366;52.498;13.446;2023-03-21T01:09:44;10.20;99.90
37518;DHT22;23366;52.498;13.446;2023-03-21T01:12:09;10.20;99.90
37518;DHT22;23366;52.498;13.446;2023-03-21T01:14:35;10.10;99.90
37518;DHT22;23366;52.498;13.446;2023-03-21T01:17:01;10.10;99.90
37518;DHT22;23366;52.498;13.446;2023-03-21T01:19:27;10.10;99.90
37518;DHT22;23366;52.498;13.446;2023-03-21T01:21:54;10.10;99.90
37518;DHT22;23366;52.498;13.446;2023-03-21T01:24:19;10.10;99.90
37518;DHT22;23366;52.498;13.446;2023-03-21T01:26:45;10.10;99.90
37518;DHT22;23366;52.498;13.446;2023-03-21T01:29:10;10.00;99.90
37518;DHT22;23366;52.498;13.446;2023-03-21T01:31:36;10.00;99.90
37518;DHT22;23366;52.498;13.446;2023-03-21T01:34:01;9.90;99.90
37518;DHT22;23366;52.498;13.446;2023-03-21T01:36:27;9.90;99.90
37518;DHT22;23366;52.498;13.446;2023-03-21T01:38:53;9.90;99.90
37518;DHT22;23366;52.498;13.446;2023-03-21T01:41:31;9.90;99.90
37518;DHT22;23366;52.498;13.446;2023-03-21T01:43:57;9.90;99.90
37518;DHT22;23366;52.498;13.446;2023-03-21T01:46:48;9.80;99.90
37518;DHT22;23366;52.498;13.446;2023-03-21T01:49:30;9.80;99.90
37518;DHT22;23366;52.498;13.446;2023-03-21T01:52:03;9.90;99.90
37518;DHT22;23366;52.498;13.446;2023-03-21T01:54:31;9.80;99.90
37518;DHT22;23366;52.498;13.446;2023-03-21T01:57:00;9.90;99.90
37518;DHT22;23366;52.498;13.446;2023-03-21T01:59:49;9.80;99.90
37518;DHT22;23366;52.498;13.446;2023-03-21T02:02:26;9.90;99.90
37518;DHT22;23366;52.498;13.446;2023-03-21T02:04:52;9.90;99.90
37518;DHT22;23366;52.498;13.446;2023-03-21T02:07:33;9.80;99.90
37518;DHT22;23366;52.498;13.446;2023-03-21T02:10:02;9.80;99.90
37518;DHT22;23366;52.498;13.446;2023-03-21T02:12:30;9.80;99.90
37518;DHT22;23366;52.498;13.446;2023-03-21T02:14:56;9.80;99.90
37518;DHT22;23366;52.498;13.446;2023-03-21T02:17:52;9.80;99.90
37518;DHT22;23366;52.498;13.446;2023-03-21T02:23:21;9.80;99.90
37518;DHT22;23366;52.498;13.446;2023-03-21T02:26:08;9.80;99.90
37518;DHT22;23366;52.498;13.446;2023-03-21T02:28:55;9.80;99.90
37518;DHT22;23366;52.498;13.446;2023-03-21T02:39:48;9.70;99.90
37518;DHT22;23366;52.498;13.446;2023-03-21T02:42:39;9.70;99.90
37518;DHT22;23366;52.498;13.446;2023-03-21T02:45:20;9.70;99.90
37518;DHT22;23366;52.498;13.446;2023-03-21T02:48:00;9.70;99.90
37518;DHT22;23366;52.498;13.446;2023-03-21T02:50:50;9.70;99.90
37518;DHT22;23366;52.498;13.446;2023-03-21T02:53:19;9.60;99.90
37518;DHT22;23366;52.498;13.446;2023-03-21T02:55:46;9.70;99.90
37518;DHT22;23366;52.498;13.446;2023-03-21T02:58:15;9.60;99.90
37518;DHT22;23366;52.498;13.446;2023-03-21T03:00:42;9.60;99.90
37518;DHT22;23366;52.498;13.446;2023-03-21T03:03:10;9.60;99.90
37518;DHT22;23366;52.498;13.446;2023-03-21T03:05:41;9.60;99.90
37518;DHT22;23366;52.498;13.446;2023-03-21T03:11:08;9.60;99.90
37518;DHT22;23366;52.498;13.446;2023-03-21T03:14:25;9.60;99.90
37518;DHT22;23366;52.498;13.446;2023-03-21T03:19:16;9.50;99.90
37518;DHT22;23366;52.498;13.446;2023-03-21T03:21:54;9.50;99.90
37518;DHT22;23366;52.498;13.446;2023-03-21T03:24:25;9.40;99.90
37518;DHT22;23366;52.498;13.446;2023-03-21T03:26:58;9.50;99.90
37518;DHT22;23366;52.498;13.446;2023-03-21T03:29:28;9.40;99.90
37518;DHT22;23366;52.498;13.446;2023-03-21T03:32:00;9.40;99.90
37518;DHT22;23366;52.498;13.446;2023-03-21T03:34:31;9.50;99.90
37518;DHT22;23366;52.498;13.446;2023-03-21T03:37:01;9.50;99.90
37518;DHT22;23366;52.498;13.446;2023-03-21T03:39:34;9.40;99.90
37518;DHT22;23366;52.498;13.446;2023-03-21T03:42:14;9.40;99.90
37518;DHT22;23366;52.498;13.446;2023-03-21T03:44:41;9.40;99.90
37518;DHT22;23366;52.498;13.446;2023-03-21T03:47:11;9.30;99.90
37518;DHT22;23366;52.498;13.446;2023-03-21T03:49:52;9.40;99.90
37518;DHT22;23366;52.498;13.446;2023-03-21T03:52:27;9.40;99.90
37518;DHT22;23366;52.498;13.446;2023-03-21T03:54:54;9.40;99.90
37518;DHT22;23366;52.498;13.446;2023-03-21T03:57:20;9.40;99.90
37518;DHT22;23366;52.498;13.446;2023-03-21T03:59:46;9.40;99.90
37518;DHT22;23366;52.498;13.446;2023-03-21T04:02:12;9.40;99.90
37518;DHT22;23366;52.498;13.446;2023-03-21T04:04:38;9.30;99.90
37518;DHT22;23366;52.498;13.446;2023-03-21T04:07:04;9.30;99.90
37518;DHT22;23366;52.498;13.446;2023-03-21T04:09:30;9.30;99.90
37518;DHT22;23366;52.498;13.446;2023-03-21T04:11:57;9.30;99.90
37518;DHT22;23366;52.498;13.446;2023-03-21T04:14:23;9.30;99.90
37518;DHT22;23366;52.498;13.446;2023-03-21T04:16:49;9.30;99.90
37518;DHT22;23366;52.498;13.446;2023-03-21T04:19:17;9.30;99.90
37518;DHT22;23366;52.498;13.446;2023-03-21T04:21:42;9.30;99.90
37518;DHT22;23366;52.498;13.446;2023-03-21T04:24:08;9.20;99.90
37518;DHT22;23366;52.498;13.446;2023-03-21T04:26:34;9.20;99.90
37518;DHT22;23366;52.498;13.446;2023-03-21T04:29:00;9.30;99.90
37518;DHT22;23366;52.498;13.446;2023-03-21T04:31:27;9.30;99.90
37518;DHT22;23366;52.498;13.446;2023-03-21T04:33:57;9.30;99.90
37518;DHT22;23366;52.498;13.446;2023-03-21T04:36:24;9.30;99.90
37518;DHT22;23366;52.498;13.446;2023-03-21T04:38:51;9.30;99.90
37518;DHT22;23366;52.498;13.446;2023-03-21T04:41:17;9.30;99.90
37518;DHT22;23366;52.498;13.446;2023-03-21T04:43:43;9.30;99.90
37518;DHT22;23366;52.498;13.446;2023-03-21T04:46:09;9.30;99.90
37518;DHT22;23366;52.498;13.446;2023-03-21T04:48:35;9.30;99.90
37518;DHT22;23366;52.498;13.446;2023-03-21T04:51:00;9.20;99.90
37518;DHT22;23366;52.498;13.446;2023-03-21T04:53:26;9.30;99.90
37518;DHT22;23366;52.498;13.446;2023-03-21T04:55:51;9.20;99.90
37518;DHT22;23366;52.498;13.446;2023-03-21T04:58:17;9.20;99.90
37518;DHT22;23366;52.498;13.446;2023-03-21T05:00:45;9.20;99.90
37518;DHT22;23366;52.498;13.446;2023-03-21T05:03:10;9.20;99.90
37518;DHT22;23366;52.498;13.446;2023-03-21T05:05:44;9.20;99.90
37518;DHT22;23366;52.498;13.446;2023-03-21T05:08:10;9.20;99.90
37518;DHT22;23366;52.498;13.446;2023-03-21T05:10:36;9.20;99.90
37518;DHT22;23366;52.498;13.446;2023-03-21T05:13:02;9.10;99.90
37518;DHT22;23366;52.498;13.446;2023-03-21T05:15:28;9.10;99.90
37518;DHT22;23366;52.498;13.446;2023-03-21T05:17:53;9.00;99.90
37518;DHT22;23366;52.498;13.446;2023-03-21T05:20:19;9.00;99.90
37518;DHT22;23366;52.498;13.446;2023-03-21T05:22:45;9.10;99.90
37518;DHT22;23366;52.498;13.446;2023-03-21T05:25:14;9.10;99.90
37518;DHT22;23366;52.498;13.446;2023-03-21T05:27:42;9.00;99.90
37518;DHT22;23366;52.498;13.446;2023-03-21T05:30:10;9.10;99.90
37518;DHT22;23366;52.498;13.446;2023-03-21T05:32:36;9.10;99.90
37518;DHT22;23366;52.498;13.446;2023-03-21T05:35:03;9.00;99.90
37518;DHT22;23366;52.498;13.446;2023-03-21T05:37:28;8.90;99.90
37518;DHT22;23366;52.498;13.446;2023-03-21T05:39:54;8.90;99.90
37518;DHT22;23366;52.498;13.446;2023-03-21T05:42:19;8.90;99.90
37518;DHT22;23366;52.498;13.446;2023-03-21T05:44:45;8.80;99.90
37518;DHT22;23366;52.498;13.446;2023-03-21T05:47:12;8.80;99.90
37518;DHT22;23366;52.498;13.446;2023-03-21T05:49:38;8.90;99.90
37518;DHT22;23366;52.498;13.446;2023-03-21T05:52:04;8.90;99.90
37518;DHT22;23366;52.498;13.446;2023-03-21T05:54:29;8.90;99.90
37518;DHT22;23366;52.498;13.446;2023-03-21T05:56:55;8.90;99.90
37518;DHT22;23366;52.498;13.446;2023-03-21T05:59:21;9.00;99.90
37518;DHT22;23366;52.498;13.446;2023-03-21T06:01:47;9.00;99.90
37518;DHT22;23366;52.498;13.446;2023-03-21T06:04:12;9.10;99.90
37518;DHT22;23366;52.498;13.446;2023-03-21T06:06:38;9.10;99.90
37518;DHT22;23366;52.498;13.446;2023-03-21T06:09:03;9.10;99.90
37518;DHT22;23366;52.498;13.446;2023-03-21T06:11:32;9.30;99.90
37518;DHT22;23366;52.498;13.446;2023-03-21T06:13:59;9.20;99.90
37518;DHT22;23366;52.498;13.446;2023-03-21T06:16:24;9.20;99.90
37518;DHT22;23366;52.498;13.446;2023-03-21T06:18:53;9.10;99.90
37518;DHT22;23366;52.498;13.446;2023-03-21T06:21:19;9.10;99.90
37518;DHT22;23366;52.498;13.446;2023-03-21T06:23:46;9.20;99.90
37518;DHT22;23366;52.498;13.446;2023-03-21T06:26:12;9.10;99.90
37518;DHT22;23366;52.498;13.446;2023-03-21T06:28:38;9.20;99.90
37518;DHT22;23366;52.498;13.446;2023-03-21T06:31:07;9.30;99.90
37518;DHT22;23366;52.498;13.446;2023-03-21T06:33:32;9.30;99.90
37518;DHT22;23366;52.498;13.446;2023-03-21T06:35:58;9.30;99.90
37518;DHT22;23366;52.498;13.446;2023-03-21T06:38:24;9.40;99.90
37518;DHT22;23366;52.498;13.446;2023-03-21T06:40:50;9.40;99.90
37518;DHT22;23366;52.498;13.446;2023-03-21T06:43:16;9.40;99.90
37518;DHT22;23366;52.498;13.446;2023-03-21T06:45:42;9.50;99.90
37518;DHT22;23366;52.498;13.446;2023-03-21T06:48:07;9.50;99.90
37518;DHT22;23366;52.498;13.446;2023-03-21T06:50:34;9.50;99.90
37518;DHT22;23366;52.498;13.446;2023-03-21T06:52:59;9.50;99.90
37518;DHT22;23366;52.498;13.446;2023-03-21T06:55:26;9.60;99.90
37518;DHT22;23366;52.498;13.446;2023-03-21T06:57:55;9.60;99.90
37518;DHT22;23366;52.498;13.446;2023-03-21T07:00:21;9.60;99.90
37518;DHT22;23366;52.498;13.446;2023-03-21T07:02:48;9.50;99.90
37518;DHT22;23366;52.498;13.446;2023-03-21T07:05:15;9.40;99.90
37518;DHT22;23366;52.498;13.446;2023-03-21T07:07:40;9.40;99.90
37518;DHT22;23366;52.498;13.446;2023-03-21T07:10:07;9.40;99.90
37518;DHT22;23366;52.498;13.446;2023-03-21T07:12:33;9.40;99.90
37518;DHT22;23366;52.498;13.446;2023-03-21T07:15:01;9.40;99.90
37518;DHT22;23366;52.498;13.446;2023-03-21T07:17:26;9.40;99.90
37518;DHT22;23366;52.498;13.446;2023-03-21T07:19:52;9.30;99.90
37518;DHT22;23366;52.498;13.446;2023-03-21T07:22:18;9.20;99.90
37518;DHT22;23366;52.498;13.446;2023-03-21T07:24:43;9.10;99.90
37518;DHT22;23366;52.498;13.446;2023-03-21T07:27:13;9.10;99.90
37518;DHT22;23366;52.498;13.446;2023-03-21T07:29:39;9.20;99.90
37518;DHT22;23366;52.498;13.446;2023-03-21T07:32:05;9.20;99.90
37518;DHT22;23366;52.498;13.446;2023-03-21T07:34:31;9.20;99.90
37518;DHT22;23366;52.498;13.446;2023-03-21T07:36:58;9.20;99.90
37518;DHT22;23366;52.498;13.446;2023-03-21T07:39:25;9.20;99.90
37518;DHT22;23366;52.498;13.446;2023-03-21T07:41:51;9.30;99.90
37518;DHT22;23366;52.498;13.446;2023-03-21T07:44:20;9.20;99.90
37518;DHT22;23366;52.498;13.446;2023-03-21T07:46:46;9.30;99.90
37518;DHT22;23366;52.498;13.446;2023-03-21T07:49:11;9.30;99.90
37518;DHT22;23366;52.498;13.446;2023-03-21T07:51:37;9.20;99.90
37518;DHT22;23366;52.498;13.446;2023-03-21T07:54:02;9.30;99.90
37518;DHT22;23366;52.498;13.446;2023-03-21T07:56:28;9.40;99.90
37518;DHT22;23366;52.498;13.446;2023-03-21T07:58:54;9.40;99.90
37518;DHT22;23366;52.498;13.446;2023-03-21T08:01:19;9.40;99.90
37518;DHT22;23366;52.498;13.446;2023-03-21T08:03:46;9.40;99.90
37518;DHT22;23366;52.498;13.446;2023-03-21T08:06:13;9.40;99.90
37518;DHT22;23366;52.498;13.446;2023-03-21T08:08:39;9.40;99.90
37518;DHT22;23366;52.498;13.446;2023-03-21T08:11:05;9.50;99.90
37518;DHT22;23366;52.498;13.446;2023-03-21T08:13:32;9.50;99.90
37518;DHT22;23366;52.498;13.446;2023-03-21T08:15:57;9.50;99.90
37518;DHT22;23366;52.498;13.446;2023-03-21T08:18:23;9.60;99.90
37518;DHT22;23366;52.498;13.446;2023-03-21T08:20:53;9.70;99.90
37518;DHT22;23366;52.498;13.446;2023-03-21T08:23:18;9.70;99.90
37518;DHT22;23366;52.498;13.446;2023-03-21T08:25:45;9.80;99.90
37518;DHT22;23366;52.498;13.446;2023-03-21T08:28:15;9.80;99.90
37518;DHT22;23366;52.498;13.446;2023-03-21T08:30:41;9.80;99.90
37518;DHT22;23366;52.498;13.446;2023-03-21T08:33:06;9.90;99.90
37518;DHT22;23366;52.498;13.446;2023-03-21T08:35:32;9.90;99.90
37518;DHT22;23366;52.498;13.446;2023-03-21T08:37:58;9.90;99.90
37518;DHT22;23366;52.498;13.446;2023-03-21T08:40:25;9.90;99.90
37518;DHT22;23366;52.498;13.446;2023-03-21T08:42:51;9.80;99.90
37518;DHT22;23366;52.498;13.446;2023-03-21T08:45:17;9.80;99.90
37518;DHT22;23366;52.498;13.446;2023-03-21T08:47:43;9.80;99.90
37518;DHT22;23366;52.498;13.446;2023-03-21T08:50:12;9.90;99.90
37518;DHT22;23366;52.498;13.446;2023-03-21T08:52:38;9.90;99.90
37518;DHT22;23366;52.498;13.446;2023-03-21T08:55:04;10.10;99.90
37518;DHT22;23366;52.498;13.446;2023-03-21T08:57:30;10.20;99.90
37518;DHT22;23366;52.498;13.446;2023-03-21T08:59:55;10.20;99.90
37518;DHT22;23366;52.498;13.446;2023-03-21T09:02:21;10.30;99.90
37518;DHT22;23366;52.498;13.446;2023-03-21T09:04:47;10.30;99.90
37518;DHT22;23366;52.498;13.446;2023-03-21T09:07:13;10.20;99.90
37518;DHT22;23366;52.498;13.446;2023-03-21T09:09:39;10.00;99.90
37518;DHT22;23366;52.498;13.446;2023-03-21T09:12:06;10.00;99.90
37518;DHT22;23366;52.498;13.446;2023-03-21T09:14:32;9.90;99.90
37518;DHT22;23366;52.498;13.446;2023-03-21T09:16:59;9.90;99.90
37518;DHT22;23366;52.498;13.446;2023-03-21T09:19:25;9.80;99.90
37518;DHT22;23366;52.498;13.446;2023-03-21T09:21:52;9.90;99.90
37518;DHT22;23366;52.498;13.446;2023-03-21T09:24:18;9.90;99.90
37518;DHT22;23366;52.498;13.446;2023-03-21T09:26:44;9.90;99.90
37518;DHT22;23366;52.498;13.446;2023-03-21T09:29:10;10.10;99.90
37518;DHT22;23366;52.498;13.446;2023-03-21T09:31:36;10.10;99.90
37518;DHT22;23366;52.498;13.446;2023-03-21T09:34:04;10.20;99.90
37518;DHT22;23366;52.498;13.446;2023-03-21T09:36:30;10.20;99.90
37518;DHT22;23366;52.498;13.446;2023-03-21T09:38:59;10.30;99.90
37518;DHT22;23366;52.498;13.446;2023-03-21T09:44:22;10.40;99.90
37518;DHT22;23366;52.498;13.446;2023-03-21T09:47:19;10.50;99.90
37518;DHT22;23366;52.498;13.446;2023-03-21T09:49:49;10.60;99.90
37518;DHT22;23366;52.498;13.446;2023-03-21T09:52:22;10.60;99.90
37518;DHT22;23366;52.498;13.446;2023-03-21T09:54:49;10.70;99.90
37518;DHT22;23366;52.498;13.446;2023-03-21T09:57:31;10.60;99.90
37518;DHT22;23366;52.498;13.446;2023-03-21T10:00:02;10.70;99.90
37518;DHT22;23366;52.498;13.446;2023-03-21T10:02:51;10.70;99.90
37518;DHT22;23366;52.498;13.446;2023-03-21T10:05:30;10.70;99.90
37518;DHT22;23366;52.498;13.446;2023-03-21T10:08:15;10.70;99.90
37518;DHT22;23366;52.498;13.446;2023-03-21T10:10:51;10.90;99.90
37518;DHT22;23366;52.498;13.446;2023-03-21T10:13:33;10.90;99.90
37518;DHT22;23366;52.498;13.446;2023-03-21T10:16:03;11.00;99.90
37518;DHT22;23366;52.498;13.446;2023-03-21T10:18:35;11.10;99.90
37518;DHT22;23366;52.498;13.446;2023-03-21T10:21:03;11.20;99.90
37518;DHT22;23366;52.498;13.446;2023-03-21T10:23:29;11.30;99.90
37518;DHT22;23366;52.498;13.446;2023-03-21T10:25:59;11.30;99.90
37518;DHT22;23366;52.498;13.446;2023-03-21T10:28:28;11.10;99.90
37518;DHT22;23366;52.498;13.446;2023-03-21T10:30:57;11.10;99.90
37518;DHT22;23366;52.498;13.446;2023-03-21T10:33:26;11.00;99.90
37518;DHT22;23366;52.498;13.446;2023-03-21T10:36:04;11.00;99.90
37518;DHT22;23366;52.498;13.446;2023-03-21T10:38:32;11.00;99.90
37518;DHT22;23366;52.498;13.446;2023-03-21T10:40:58;11.10;99.90
37518;DHT22;23366;52.498;13.446;2023-03-21T10:46:08;11.50;99.90
37518;DHT22;23366;52.498;13.446;2023-03-21T10:48:40;11.60;99.90
37518;DHT22;23366;52.498;13.446;2023-03-21T10:51:18;11.80;99.90
37518;DHT22;23366;52.498;13.446;2023-03-21T10:53:57;11.70;99.90
37518;DHT22;23366;52.498;13.446;2023-03-21T10:56:29;11.70;99.90
37518;DHT22;23366;52.498;13.446;2023-03-21T10:58:58;11.60;99.90
37518;DHT22;23366;52.498;13.446;2023-03-21T11:01:34;11.70;99.90
37518;DHT22;23366;52.498;13.446;2023-03-21T11:04:07;11.80;99.90
37518;DHT22;23366;52.498;13.446;2023-03-21T11:06:37;11.90;99.90
37518;DHT22;23366;52.498;13.446;2023-03-21T11:09:15;11.80;99.90
37518;DHT22;23366;52.498;13.446;2023-03-21T11:14:47;11.70;99.90
37518;DHT22;23366;52.498;13.446;2023-03-21T11:19:58;11.80;99.90
37518;DHT22;23366;52.498;13.446;2023-03-21T11:22:28;11.70;99.90
37518;DHT22;23366;52.498;13.446;2023-03-21T11:25:00;11.70;99.90
37518;DHT22;23366;52.498;13.446;2023-03-21T11:27:28;11.70;99.90
37518;DHT22;23366;52.498;13.446;2023-03-21T11:29:57;11.70;99.90
37518;DHT22;23366;52.498;13.446;2023-03-21T11:32:32;11.80;99.90
37518;DHT22;23366;52.498;13.446;2023-03-21T11:37:30;11.90;99.90
37518;DHT22;23366;52.498;13.446;2023-03-21T11:40:17;12.00;99.90
37518;DHT22;23366;52.498;13.446;2023-03-21T11:42:45;12.10;99.90
37518;DHT22;23366;52.498;13.446;2023-03-21T11:45:15;12.10;99.90
37518;DHT22;23366;52.498;13.446;2023-03-21T11:47:42;12.20;99.90
37518;DHT22;23366;52.498;13.446;2023-03-21T11:50:19;12.40;99.90
37518;DHT22;23366;52.498;13.446;2023-03-21T11:55:31;12.40;99.90
37518;DHT22;23366;52.498;13.446;2023-03-21T11:58:13;12.10;99.90
37518;DHT22;23366;52.498;13.446;2023-03-21T12:03:44;12.10;99.90
37518;DHT22;23366;52.498;13.446;2023-03-21T12:06:38;12.20;99.90
37518;DHT22;23366;52.498;13.446;2023-03-21T12:09:18;12.40;99.90
37518;DHT22;23366;52.498;13.446;2023-03-21T12:11:51;12.60;99.90
37518;DHT22;23366;52.498;13.446;2023-03-21T12:17:17;12.60;99.90
37518;DHT22;23366;52.498;13.446;2023-03-21T12:20:02;12.60;99.90
37518;DHT22;23366;52.498;13.446;2023-03-21T12:25:30;12.50;99.90
37518;DHT22;23366;52.498;13.446;2023-03-21T12:28:32;12.50;99.90
37518;DHT22;23366;52.498;13.446;2023-03-21T12:39:15;12.50;99.90
37518;DHT22;23366;52.498;13.446;2023-03-21T12:45:00;12.40;99.90
37518;DHT22;23366;52.498;13.446;2023-03-21T12:47:31;12.30;99.90
37518;DHT22;23366;52.498;13.446;2023-03-21T12:50:05;12.40;99.90
37518;DHT22;23366;52.498;13.446;2023-03-21T12:52:46;12.40;99.90
37518;DHT22;23366;52.498;13.446;2023-03-21T12:55:19;12.50;99.90
37518;DHT22;23366;52.498;13.446;2023-03-21T12:58:00;12.50;99.90
37518;DHT22;23366;52.498;13.446;2023-03-21T13:00:34;12.50;99.90
37518;DHT22;23366;52.498;13.446;2023-03-21T13:05:49;12.50;99.90
37518;DHT22;23366;52.498;13.446;2023-03-21T13:08:20;12.60;99.90
37518;DHT22;23366;52.498;13.446;2023-03-21T13:10:47;12.50;99.90
37518;DHT22;23366;52.498;13.446;2023-03-21T13:13:29;12.60;99.90
37518;DHT22;23366;52.498;13.446;2023-03-21T13:19:13;12.90;99.90
37518;DHT22;23366;52.498;13.446;2023-03-21T13:27:01;13.00;99.90
37518;DHT22;23366;52.498;13.446;2023-03-21T13:29:44;12.90;99.90
37518;DHT22;23366;52.498;13.446;2023-03-21T13:32:30;13.00;99.90
37518;DHT22;23366;52.498;13.446;2023-03-21T13:35:10;13.00;99.90
37518;DHT22;23366;52.498;13.446;2023-03-21T13:37:41;12.80;99.90
37518;DHT22;23366;52.498;13.446;2023-03-21T13:40:26;12.70;99.90
37518;DHT22;23366;52.498;13.446;2023-03-21T13:42:55;12.60;99.90
37518;DHT22;23366;52.498;13.446;2023-03-21T13:45:45;12.50;99.90
37518;DHT22;23366;52.498;13.446;2023-03-21T13:48:31;12.50;99.90
37518;DHT22;23366;52.498;13.446;2023-03-21T13:51:08;12.50;99.90
37518;DHT22;23366;52.498;13.446;2023-03-21T13:53:40;12.40;99.90
37518;DHT22;23366;52.498;13.446;2023-03-21T13:58:39;12.50;99.90
37518;DHT22;23366;52.498;13.446;2023-03-21T14:09:29;12.70;99.90
37518;DHT22;23366;52.498;13.446;2023-03-21T14:11:56;12.70;99.90
37518;DHT22;23366;52.498;13.446;2023-03-21T14:14:37;12.60;99.90
37518;DHT22;23366;52.498;13.446;2023-03-21T14:17:19;12.70;99.90
37518;DHT22;23366;52.498;13.446;2023-03-21T14:19:46;12.60;99.90
37518;DHT22;23366;52.498;13.446;2023-03-21T14:22:16;12.70;99.90
37518;DHT22;23366;52.498;13.446;2023-03-21T14:24:47;12.60;99.90
37518;DHT22;23366;52.498;13.446;2023-03-21T14:27:13;12.60;99.90
37518;DHT22;23366;52.498;13.446;2023-03-21T14:29:39;12.50;99.90
37518;DHT22;23366;52.498;13.446;2023-03-21T14:32:13;12.50;99.90
37518;DHT22;23366;52.498;13.446;2023-03-21T14:34:43;12.40;99.90
37518;DHT22;23366;52.498;13.446;2023-03-21T14:37:11;12.50;99.90
37518;DHT22;23366;52.498;13.446;2023-03-21T14:39:36;12.40;99.90
37518;DHT22;23366;52.498;13.446;2023-03-21T14:42:09;12.60;99.90
37518;DHT22;23366;52.498;13.446;2023-03-21T14:44:40;12.70;99.90
37518;DHT22;23366;52.498;13.446;2023-03-21T14:47:08;12.70;99.90
37518;DHT22;23366;52.498;13.446;2023-03-21T14:49:41;12.70;99.90
37518;DHT22;23366;52.498;13.446;2023-03-21T14:52:10;12.80;99.90
37518;DHT22;23366;52.498;13.446;2023-03-21T14:54:44;12.80;99.90
37518;DHT22;23366;52.498;13.446;2023-03-21T14:57:33;12.70;99.90
37518;DHT22;23366;52.498;13.446;2023-03-21T15:00:03;12.90;99.90
37518;DHT22;23366;52.498;13.446;2023-03-21T15:02:38;12.90;99.90
37518;DHT22;23366;52.498;13.446;2023-03-21T15:05:14;12.90;99.90
37518;DHT22;23366;52.498;13.446;2023-03-21T15:07:41;13.00;99.90
37518;DHT22;23366;52.498;13.446;2023-03-21T15:10:14;13.00;99.90
37518;DHT22;23366;52.498;13.446;2023-03-21T15:12:56;13.00;99.90
37518;DHT22;23366;52.498;13.446;2023-03-21T15:15:24;13.00;99.90
37518;DHT22;23366;52.498;13.446;2023-03-21T15:17:50;12.90;99.90
37518;DHT22;23366;52.498;13.446;2023-03-21T15:20:23;12.80;99.90
37518;DHT22;23366;52.498;13.446;2023-03-21T15:23:06;12.80;99.90
37518;DHT22;23366;52.498;13.446;2023-03-21T15:25:34;12.80;99.90
37518;DHT22;23366;52.498;13.446;2023-03-21T15:28:02;12.80;99.90
37518;DHT22;23366;52.498;13.446;2023-03-21T15:30:29;12.70;99.90
37518;DHT22;23366;52.498;13.446;2023-03-21T15:32:58;12.80;99.90
37518;DHT22;23366;52.498;13.446;2023-03-21T15:35:38;12.80;99.90
37518;DHT22;23366;52.498;13.446;2023-03-21T15:38:04;12.80;99.90
37518;DHT22;23366;52.498;13.446;2023-03-21T15:40:32;12.90;99.90
37518;DHT22;23366;52.498;13.446;2023-03-21T15:43:14;12.80;99.90
37518;DHT22;23366;52.498;13.446;2023-03-21T15:45:49;12.80;99.90
37518;DHT22;23366;52.498;13.446;2023-03-21T15:48:16;12.80;99.90
37518;DHT22;23366;52.498;13.446;2023-03-21T15:53:19;12.70;99.90
37518;DHT22;23366;52.498;13.446;2023-03-21T15:55:49;12.70;99.90
37518;DHT22;23366;52.498;13.446;2023-03-21T15:58:30;12.70;99.90
37518;DHT22;23366;52.498;13.446;2023-03-21T16:01:04;12.60;99.90
37518;DHT22;23366;52.498;13.446;2023-03-21T16:03:35;12.60;99.90
37518;DHT22;23366;52.498;13.446;2023-03-21T16:11:47;12.50;99.90
37518;DHT22;23366;52.498;13.446;2023-03-21T16:14:16;12.50;99.90
37518;DHT22;23366;52.498;13.446;2023-03-21T16:16:43;12.50;99.90
37518;DHT22;23366;52.498;13.446;2023-03-21T16:19:10;12.50;99.90
37518;DHT22;23366;52.498;13.446;2023-03-21T16:21:36;12.50;99.90
37518;DHT22;23366;52.498;13.446;2023-03-21T16:24:05;12.50;99.90
37518;DHT22;23366;52.498;13.446;2023-03-21T16:26:36;12.50;99.90
37518;DHT22;23366;52.498;13.446;2023-03-21T16:29:06;12.40;99.90
37518;DHT22;23366;52.498;13.446;2023-03-21T16:31:34;12.40;99.90
37518;DHT22;23366;52.498;13.446;2023-03-21T16:34:01;12.40;99.90
37518;DHT22;23366;52.498;13.446;2023-03-21T16:36:31;12.40;99.90
37518;DHT22;23366;52.498;13.446;2023-03-21T16:38:57;12.40;99.90
37518;DHT22;23366;52.498;13.446;2023-03-21T16:41:24;12.40;99.90
37518;DHT22;23366;52.498;13.446;2023-03-21T16:43:50;12.40;99.90
37518;DHT22;23366;52.498;13.446;2023-03-21T16:46:17;12.40;99.90
37518;DHT22;23366;52.498;13.446;2023-03-21T16:48:47;12.40;99.90
37518;DHT22;23366;52.498;13.446;2023-03-21T16:51:14;12.40;99.90
37518;DHT22;23366;52.498;13.446;2023-03-21T16:53:40;12.30;99.90
37518;DHT22;23366;52.498;13.446;2023-03-21T16:56:16;12.30;99.90
37518;DHT22;23366;52.498;13.446;2023-03-21T16:58:42;12.30;99.90
37518;DHT22;23366;52.498;13.446;2023-03-21T17:01:14;12.30;99.90
37518;DHT22;23366;52.498;13.446;2023-03-21T17:03:40;12.30;99.90